createdAt,value
2023-03-17T00:01:17.322Z,6.15
2023-03-17T00:03:46.566Z,6.13
2023-03-17T00:06:17.064Z,6.07
2023-03-17T00:08:46.281Z,6.04
2023-03-17T00:11:16.016Z,6.02
2023-03-17T00:13:44.585Z,6.01
2023-03-17T00:16:18.051Z,5.98
2023-03-17T00:18:45.830Z,5.94
2023-03-17T00:21:15.572Z,5.93
2023-03-17T00:23:46.960Z,5.89
2023-03-17T00:26:15.282Z,5.87
2023-03-17T00:28:43.270Z,5.86
2023-03-17T00:31:15.165Z,5.83
2023-03-17T00:33:45.485Z,5.81
2023-03-17T00:36:17.973Z,5.78
2023-03-17T00:38:46.181Z,5.75
2023-03-17T00:41:14.152Z,5.74
2023-03-17T00:43:42.841Z,5.72
2023-03-17T00:46:14.714Z,5.69
2023-03-17T00:48:44.774Z,5.68
2023-03-17T00:51:12.503Z,5.63
2023-03-17T00:53:40.517Z,5.64
2023-03-17T00:56:14.374Z,5.61
2023-03-17T00:58:42.200Z,5.62
2023-03-17T01:01:10.732Z,5.61
2023-03-17T01:03:38.977Z,5.60
2023-03-17T01:06:11.189Z,5.56
2023-03-17T01:08:39.669Z,5.54
2023-03-17T01:11:08.591Z,5.50
2023-03-17T01:13:36.639Z,5.48
2023-03-17T01:16:04.379Z,5.50
2023-03-17T01:18:32.780Z,5.49
2023-03-17T01:21:00.366Z,5.48
2023-03-17T01:23:29.323Z,5.43
2023-03-17T01:25:57.346Z,5.42
2023-03-17T01:28:25.403Z,5.40
2023-03-17T01:30:52.925Z,5.41
2023-03-17T01:33:20.678Z,5.39
2023-03-17T01:35:48.277Z,5.40
2023-03-17T01:38:16.363Z,5.39
2023-03-17T01:40:47.983Z,5.37
2023-03-17T01:43:20.837Z,5.40
2023-03-17T01:46:16.032Z,5.40
2023-03-17T01:48:46.540Z,5.36
2023-03-17T01:51:18.894Z,5.31
2023-03-17T01:53:48.867Z,5.28
2023-03-17T01:56:18.062Z,5.22
2023-03-17T01:58:48.251Z,5.23
2023-03-17T02:01:15.848Z,5.22
2023-03-17T02:03:43.814Z,5.21
2023-03-17T02:06:12.200Z,5.19
2023-03-17T02:08:39.716Z,5.16
2023-03-17T02:11:08.660Z,5.17
2023-03-17T02:13:38.476Z,5.14
2023-03-17T02:16:07.018Z,5.13
2023-03-17T02:18:34.925Z,5.14
2023-03-17T02:21:38.148Z,5.11
2023-03-17T02:24:10.838Z,5.08
2023-03-17T02:26:39.022Z,5.02
2023-03-17T02:29:06.753Z,5.01
2023-03-17T02:31:34.891Z,5.00
2023-03-17T02:34:02.801Z,5.01
2023-03-17T02:36:30.623Z,5.00
2023-03-17T02:38:59.510Z,4.90
2023-03-17T02:41:27.329Z,4.86
2023-03-17T02:43:54.939Z,4.85
2023-03-17T02:46:22.607Z,4.85
2023-03-17T02:48:50.900Z,4.83
2023-03-17T02:51:18.424Z,4.80
2023-03-17T02:53:46.001Z,4.73
2023-03-17T02:56:15.052Z,4.72
2023-03-17T02:58:42.601Z,4.72
2023-03-17T03:01:10.709Z,4.72
2023-03-17T03:03:38.517Z,4.69
2023-03-17T03:06:06.789Z,4.69
2023-03-17T03:08:34.519Z,4.75
2023-03-17T03:11:02.590Z,4.77
2023-03-17T03:13:31.616Z,4.77
2023-03-17T03:15:59.174Z,4.78
2023-03-17T03:18:27.075Z,4.78
2023-03-17T03:20:54.786Z,4.79
2023-03-17T03:23:22.351Z,4.76
2023-03-17T03:25:49.986Z,4.72
2023-03-17T03:28:17.618Z,4.70
2023-03-17T03:30:46.884Z,4.70
2023-03-17T03:33:18.764Z,4.67
2023-03-17T03:35:46.483Z,4.60
2023-03-17T03:38:14.333Z,4.56
2023-03-17T03:40:42.300Z,4.54
2023-03-17T03:43:22.079Z,4.49
2023-03-17T03:45:54.470Z,4.48
2023-03-17T03:48:23.011Z,4.50
2023-03-17T03:50:50.546Z,4.57
2023-03-17T03:53:18.040Z,4.59
2023-03-17T03:55:45.692Z,4.62
2023-03-17T03:58:13.278Z,4.63
2023-03-17T04:00:40.891Z,4.64
2023-03-17T04:03:09.819Z,4.64
2023-03-17T04:05:37.399Z,4.63
2023-03-17T04:08:05.179Z,4.64
2023-03-17T04:10:32.928Z,4.67
2023-03-17T04:13:00.697Z,4.67
2023-03-17T04:15:28.436Z,4.66
2023-03-17T04:17:56.068Z,4.66
2023-03-17T04:20:24.991Z,4.62
2023-03-17T04:22:52.546Z,4.61
2023-03-17T04:25:20.400Z,4.54
2023-03-17T04:27:47.959Z,4.45
2023-03-17T04:30:16.896Z,4.41
2023-03-17T04:32:46.333Z,4.33
2023-03-17T04:35:15.938Z,4.31
2023-03-17T04:37:45.534Z,4.30
2023-03-17T04:40:14.429Z,4.25
2023-03-17T04:42:42.197Z,4.24
2023-03-17T04:45:12.440Z,4.25
2023-03-17T04:47:39.971Z,4.24
2023-03-17T04:50:08.900Z,4.20
2023-03-17T04:52:37.037Z,4.22
2023-03-17T04:55:08.251Z,4.21
2023-03-17T04:57:36.065Z,4.21
2023-03-17T05:00:04.548Z,4.18
2023-03-17T05:02:32.205Z,4.14
2023-03-17T05:04:59.900Z,4.17
2023-03-17T05:07:27.406Z,4.15
2023-03-17T05:09:54.931Z,4.10
2023-03-17T05:12:23.858Z,4.07
2023-03-17T05:14:51.442Z,4.07
2023-03-17T05:17:18.970Z,4.05
2023-03-17T05:19:46.894Z,4.05
2023-03-17T05:22:14.442Z,4.05
2023-03-17T05:24:42.078Z,4.02
2023-03-17T05:27:09.880Z,4.01
2023-03-17T05:29:39.278Z,4.01
2023-03-17T05:32:07.542Z,4.00
2023-03-17T05:34:35.056Z,4.00
2023-03-17T05:37:03.344Z,3.95
2023-03-17T05:39:30.880Z,3.89
2023-03-17T05:41:58.508Z,3.84
2023-03-17T05:44:26.197Z,3.83
2023-03-17T05:46:55.900Z,3.80
2023-03-17T05:49:24.463Z,3.79
2023-03-17T05:51:52.001Z,3.74
2023-03-17T05:54:19.592Z,3.67
2023-03-17T05:56:47.108Z,3.64
2023-03-17T05:59:16.783Z,3.66
2023-03-17T06:01:44.345Z,3.67
2023-03-17T06:04:13.379Z,3.68
2023-03-17T06:06:41.253Z,3.67
2023-03-17T06:09:09.384Z,3.66
2023-03-17T06:11:36.897Z,3.66
2023-03-17T06:14:04.577Z,3.66
2023-03-17T06:16:33.179Z,3.70
2023-03-17T06:19:01.223Z,3.77
2023-03-17T06:21:30.313Z,3.79
2023-03-17T06:23:57.928Z,3.83
2023-03-17T06:26:25.438Z,3.84
2023-03-17T06:28:52.985Z,3.84
2023-03-17T06:31:20.792Z,3.85
2023-03-17T06:33:48.671Z,3.85
2023-03-17T06:36:16.896Z,3.85
2023-03-17T06:38:46.050Z,3.85
2023-03-17T06:41:13.720Z,3.88
2023-03-17T06:43:41.247Z,3.91
2023-03-17T06:46:08.876Z,3.98
2023-03-17T06:48:36.450Z,4.08
2023-03-17T06:51:04.134Z,4.20
2023-03-17T06:53:31.662Z,4.32
2023-03-17T06:56:00.605Z,4.44
2023-03-17T06:58:28.156Z,4.54
2023-03-17T07:40:30.876Z,6.98
2023-03-17T07:42:59.505Z,7.18
2023-03-17T07:45:27.815Z,7.41
2023-03-17T07:47:55.634Z,7.66
2023-03-17T07:50:23.216Z,8.18
2023-03-17T07:52:50.848Z,9.44
2023-03-17T07:55:18.445Z,10.83
2023-03-17T07:57:47.339Z,11.82
2023-03-17T08:00:17.224Z,12.36
2023-03-17T08:02:46.882Z,13.04
2023-03-17T08:05:15.755Z,13.65
2023-03-17T08:07:43.362Z,13.90
2023-03-17T08:10:13.259Z,13.91
2023-03-17T08:12:41.686Z,13.86
2023-03-17T08:15:12.178Z,13.59
2023-03-17T08:17:40.117Z,13.40
2023-03-17T08:20:09.672Z,13.18
2023-03-17T08:22:37.281Z,12.78
2023-03-17T08:25:05.163Z,12.65
2023-03-17T08:27:33.969Z,12.55
2023-03-17T08:30:02.158Z,12.55
2023-03-17T08:32:31.136Z,12.67
2023-03-17T08:34:58.744Z,13.01
2023-03-17T08:37:26.664Z,13.09
2023-03-17T08:39:54.319Z,12.85
2023-03-17T08:42:22.330Z,12.55
2023-03-17T08:44:49.948Z,12.34
2023-03-17T08:47:17.557Z,12.27
2023-03-17T08:49:46.475Z,12.63
2023-03-17T08:52:14.829Z,13.12
2023-03-17T08:54:42.406Z,13.71
2023-03-17T08:57:09.985Z,14.28
2023-03-17T08:59:37.736Z,15.47
2023-03-17T09:02:05.707Z,16.65
2023-03-17T09:04:33.943Z,17.42
2023-03-17T09:07:04.339Z,17.70
2023-03-17T09:09:32.263Z,17.97
2023-03-17T09:11:59.977Z,18.23
2023-03-17T09:14:27.671Z,18.20
2023-03-17T09:16:55.435Z,17.98
2023-03-17T09:19:23.798Z,17.88
2023-03-17T09:21:51.849Z,17.85
2023-03-17T09:24:21.680Z,17.61
2023-03-17T09:26:49.267Z,17.53
2023-03-17T09:29:16.865Z,17.51
2023-03-17T09:31:44.432Z,17.24
2023-03-17T09:34:12.133Z,17.06
2023-03-17T09:36:39.896Z,17.15
2023-03-17T09:39:07.445Z,17.24
2023-03-17T09:41:57.071Z,17.44
2023-03-17T09:44:38.571Z,17.57
2023-03-17T09:47:23.939Z,17.64
2023-03-17T09:49:54.473Z,17.71
2023-03-17T09:52:27.888Z,17.83
2023-03-17T09:54:56.000Z,17.95
2023-03-17T09:57:28.062Z,18.14
2023-03-17T10:00:06.351Z,18.36
2023-03-17T10:02:37.466Z,18.61
2023-03-17T10:05:14.875Z,18.86
2023-03-17T10:07:49.515Z,19.20
2023-03-17T10:10:25.190Z,19.55
2023-03-17T10:13:06.748Z,19.75
2023-03-17T10:15:38.803Z,19.98
2023-03-17T10:18:11.334Z,20.26
2023-03-17T10:20:49.248Z,20.46
2023-03-17T10:23:21.682Z,20.60
2023-03-17T10:25:49.377Z,20.82
2023-03-17T10:28:29.709Z,21.06
2023-03-17T10:31:03.035Z,21.33
2023-03-17T10:33:32.725Z,21.65
2023-03-17T10:36:09.490Z,21.94
2023-03-17T10:38:37.612Z,22.21
2023-03-17T10:41:10.261Z,22.50
2023-03-17T10:43:44.880Z,22.84
2023-03-17T10:46:21.538Z,23.24
2023-03-17T10:48:54.178Z,23.30
2023-03-17T10:51:30.609Z,23.41
2023-03-17T10:54:01.295Z,23.50
2023-03-17T10:56:34.769Z,23.63
2023-03-17T10:59:08.897Z,23.84
2023-03-17T11:01:40.138Z,24.09
2023-03-17T11:04:27.336Z,24.39
2023-03-17T11:06:57.365Z,24.72
2023-03-17T11:09:26.242Z,24.98
2023-03-17T11:12:02.945Z,25.23
2023-03-17T11:14:32.028Z,25.44
2023-03-17T11:17:02.587Z,25.76
2023-03-17T11:19:42.017Z,26.18
2023-03-17T11:22:14.994Z,26.47
2023-03-17T11:24:55.469Z,26.64
2023-03-17T11:27:30.968Z,26.79
2023-03-17T11:30:15.176Z,26.94
2023-03-17T11:32:46.772Z,27.16
2023-03-17T11:35:34.172Z,27.24
2023-03-17T11:38:15.830Z,27.27
2023-03-17T11:40:57.886Z,27.18
2023-03-17T11:43:34.328Z,27.11
2023-03-17T11:46:10.678Z,27.20
2023-03-17T11:48:49.609Z,27.20
2023-03-17T11:51:27.586Z,26.94
2023-03-17T11:54:09.497Z,26.54
2023-03-17T11:56:42.804Z,26.37
2023-03-17T11:59:21.596Z,26.20
2023-03-17T12:01:59.570Z,26.14
2023-03-17T12:04:34.343Z,26.25
2023-03-17T12:07:09.050Z,26.42
2023-03-17T12:09:40.879Z,26.35
2023-03-17T12:12:11.858Z,26.12
2023-03-17T12:14:44.191Z,25.97
2023-03-17T12:17:19.656Z,25.82
2023-03-17T12:20:06.779Z,25.69
2023-03-17T12:22:40.772Z,25.49
2023-03-17T12:25:17.981Z,24.98
2023-03-17T12:27:51.825Z,24.47
2023-03-17T12:30:29.144Z,24.06
2023-03-17T12:33:04.675Z,23.63
2023-03-17T12:35:34.960Z,23.26
2023-03-17T12:38:10.565Z,23.02
2023-03-17T12:40:51.302Z,22.70
2023-03-17T12:43:37.617Z,22.40
2023-03-17T12:46:18.679Z,22.17
2023-03-17T12:49:14.907Z,21.95
2023-03-17T12:52:15.410Z,21.67
2023-03-17T12:54:47.826Z,21.48
2023-03-17T12:57:19.019Z,21.39
2023-03-17T12:59:50.258Z,21.32
2023-03-17T13:02:31.986Z,21.32
2023-03-17T13:05:02.014Z,21.35
2023-03-17T13:07:35.900Z,21.36
2023-03-17T13:10:36.249Z,21.32
2023-03-17T13:13:23.227Z,21.27
2023-03-17T13:16:01.188Z,21.17
2023-03-17T13:18:47.855Z,21.15
2023-03-17T13:21:20.490Z,21.16
2023-03-17T13:23:54.275Z,21.13
2023-03-17T13:26:44.628Z,21.11
2023-03-17T13:29:27.160Z,21.05
2023-03-17T13:32:14.460Z,20.98
2023-03-17T13:34:46.536Z,20.86
2023-03-17T13:37:23.770Z,20.80
2023-03-17T13:40:11.029Z,20.76
2023-03-17T13:43:05.126Z,20.73
2023-03-17T13:45:38.558Z,20.71
2023-03-17T13:48:28.701Z,20.67
2023-03-17T13:51:00.876Z,20.60
2023-03-17T13:53:31.694Z,20.51
2023-03-17T13:56:12.102Z,20.39
2023-03-17T13:58:53.900Z,20.29
2023-03-17T14:01:24.174Z,20.23
2023-03-17T14:03:54.060Z,20.14
2023-03-17T14:06:26.792Z,20.04
2023-03-17T14:08:58.280Z,19.91
2023-03-17T14:11:29.754Z,19.76
2023-03-17T14:14:31.225Z,19.64
2023-03-17T14:17:08.147Z,19.53
2023-03-17T14:19:39.016Z,19.48
2023-03-17T14:22:20.833Z,19.40
2023-03-17T14:24:53.035Z,19.28
2023-03-17T14:27:22.348Z,19.18
2023-03-17T14:29:49.920Z,19.08
2023-03-17T14:32:21.496Z,19.05
2023-03-17T14:34:55.565Z,19.02
2023-03-17T14:37:24.035Z,18.97
2023-03-17T14:39:54.712Z,18.90
2023-03-17T14:42:28.570Z,18.84
2023-03-17T14:45:03.739Z,18.78
2023-03-17T14:47:39.656Z,18.72
2023-03-17T14:50:16.948Z,18.70
2023-03-17T14:52:45.403Z,18.68
2023-03-17T14:55:14.689Z,18.66
2023-03-17T14:57:42.723Z,18.61
2023-03-17T15:00:31.797Z,18.57
2023-03-17T15:03:03.374Z,18.55
2023-03-17T15:05:41.036Z,18.51
2023-03-17T15:08:42.625Z,18.49
2023-03-17T15:11:18.482Z,18.42
2023-03-17T15:13:46.171Z,18.39
2023-03-17T15:16:21.412Z,18.35
2023-03-17T15:18:56.160Z,18.28
2023-03-17T15:21:28.178Z,18.25
2023-03-17T15:23:55.720Z,18.23
2023-03-17T15:26:31.012Z,18.18
2023-03-17T15:29:00.411Z,18.15
2023-03-17T15:31:30.093Z,18.14
2023-03-17T15:33:59.793Z,18.11
2023-03-17T15:36:32.648Z,18.15
2023-03-17T15:39:01.077Z,18.12
2023-03-17T15:41:28.698Z,18.08
2023-03-17T15:43:56.761Z,18.04
2023-03-17T15:46:27.616Z,17.94
2023-03-17T15:48:55.353Z,17.85
2023-03-17T15:51:24.186Z,17.77
2023-03-17T15:53:51.801Z,17.67
2023-03-17T15:56:21.751Z,17.58
2023-03-17T15:58:52.168Z,17.52
2023-03-17T16:01:20.631Z,17.43
2023-03-17T16:03:49.464Z,17.35
2023-03-17T16:06:18.764Z,17.27
2023-03-17T16:08:47.672Z,17.20
2023-03-17T16:11:19.041Z,17.12
2023-03-17T16:13:47.868Z,17.05
2023-03-17T16:16:22.625Z,17.00
2023-03-17T16:18:52.568Z,16.97
2023-03-17T16:21:20.736Z,16.94
2023-03-17T16:23:50.289Z,16.92
2023-03-17T16:26:17.961Z,16.89
2023-03-17T16:28:47.625Z,16.81
2023-03-17T16:31:24.998Z,16.72
2023-03-17T16:33:55.509Z,16.60
2023-03-17T16:36:25.687Z,16.50
2023-03-17T16:38:54.842Z,16.42
2023-03-17T16:41:24.283Z,16.35
2023-03-17T16:43:55.277Z,16.26
2023-03-17T16:46:23.484Z,16.21
2023-03-17T16:48:51.930Z,16.17
2023-03-17T16:51:20.117Z,16.11
2023-03-17T16:53:48.130Z,16.08
2023-03-17T16:56:19.795Z,16.04
2023-03-17T16:58:47.909Z,16.01
2023-03-17T17:01:17.789Z,15.96
2023-03-17T17:03:46.030Z,15.91
2023-03-17T17:06:15.327Z,15.87
2023-03-17T17:08:43.968Z,15.80
2023-03-17T17:11:13.440Z,15.74
2023-03-17T17:13:43.427Z,15.68
2023-03-17T17:16:20.037Z,15.60
2023-03-17T17:18:47.683Z,15.54
2023-03-17T17:21:15.231Z,15.49
2023-03-17T17:23:42.900Z,15.43
2023-03-17T17:26:10.770Z,15.40
2023-03-17T17:28:39.972Z,15.34
2023-03-17T17:31:09.838Z,15.29
2023-03-17T17:33:38.491Z,15.23
2023-03-17T17:36:12.403Z,15.20
2023-03-17T17:38:40.048Z,15.15
2023-03-17T17:41:08.923Z,15.09
2023-03-17T17:43:36.715Z,15.05
2023-03-17T17:46:04.437Z,15.01
2023-03-17T17:48:33.269Z,14.98
2023-03-17T17:51:00.936Z,14.94
2023-03-17T17:53:28.477Z,14.91
2023-03-17T17:55:57.599Z,14.87
2023-03-17T17:58:26.906Z,14.83
2023-03-17T18:00:56.846Z,14.78
2023-03-17T18:03:25.315Z,14.73
2023-03-17T18:05:55.184Z,14.69
2023-03-17T18:08:23.639Z,14.63
2023-03-17T18:10:52.225Z,14.57
2023-03-17T18:13:19.990Z,14.50
2023-03-17T18:15:47.795Z,14.42
2023-03-17T18:18:15.469Z,14.34
2023-03-17T18:20:43.070Z,14.27
2023-03-17T18:23:12.165Z,14.18
2023-03-17T18:25:39.783Z,14.12
2023-03-17T18:28:08.017Z,14.02
2023-03-17T18:30:35.848Z,13.96
2023-03-17T18:33:07.423Z,13.90
2023-03-17T18:35:35.548Z,13.83
2023-03-17T18:38:03.251Z,13.76
2023-03-17T18:40:32.404Z,13.71
2023-03-17T18:43:00.008Z,13.63
2023-03-17T18:45:27.651Z,13.57
2023-03-17T18:47:55.189Z,13.50
2023-03-17T18:50:23.393Z,13.44
2023-03-17T18:52:51.218Z,13.39
2023-03-17T18:55:19.099Z,13.36
2023-03-17T18:57:48.284Z,13.33
2023-03-17T19:00:18.536Z,13.29
2023-03-17T19:02:46.876Z,13.25
2023-03-17T19:05:15.249Z,13.24
2023-03-17T19:07:43.068Z,13.24
2023-03-17T19:10:12.025Z,13.25
2023-03-17T19:12:39.745Z,13.26
2023-03-17T19:15:10.623Z,13.26
2023-03-17T19:17:38.490Z,13.27
2023-03-17T19:20:07.205Z,13.28
2023-03-17T19:22:35.280Z,13.29
2023-03-17T19:25:04.350Z,13.28
2023-03-17T19:27:32.060Z,13.26
2023-03-17T19:29:59.633Z,13.25
2023-03-17T19:32:28.570Z,13.20
2023-03-17T19:34:56.147Z,13.15
2023-03-17T19:37:23.706Z,13.14
2023-03-17T19:39:51.196Z,13.12
2023-03-17T19:42:18.961Z,13.10
2023-03-17T19:44:46.479Z,13.07
2023-03-17T19:47:13.979Z,13.02
2023-03-17T19:49:42.879Z,13.00
2023-03-17T19:52:10.995Z,13.00
2023-03-17T19:54:43.522Z,12.99
2023-03-17T20:05:12.671Z,12.95
2023-03-17T20:07:44.116Z,12.87
2023-03-17T20:10:13.422Z,12.83
2023-03-17T20:12:42.588Z,12.78
2023-03-17T20:15:12.565Z,12.77
2023-03-17T20:17:41.194Z,12.75
2023-03-17T20:20:12.210Z,12.74
2023-03-17T20:22:41.414Z,12.70
2023-03-17T20:25:10.449Z,12.66
2023-03-17T20:27:38.693Z,12.58
2023-03-17T20:30:08.797Z,12.55
2023-03-17T20:32:36.740Z,12.50
2023-03-17T20:35:06.842Z,12.43
2023-03-17T20:37:37.535Z,12.39
2023-03-17T20:40:08.578Z,12.35
2023-03-17T20:42:37.478Z,12.29
2023-03-17T20:45:07.547Z,12.25
2023-03-17T20:47:35.731Z,12.25
2023-03-17T20:50:04.734Z,12.26
2023-03-17T20:52:32.794Z,12.24
2023-03-17T20:55:02.570Z,12.23
2023-03-17T20:57:30.582Z,12.18
2023-03-17T20:59:58.280Z,12.14
2023-03-17T21:02:26.656Z,12.10
2023-03-17T21:04:54.469Z,12.06
2023-03-17T21:07:23.434Z,12.03
2023-03-17T21:09:52.072Z,11.96
2023-03-17T21:12:21.519Z,11.87
2023-03-17T21:14:49.334Z,11.84
2023-03-17T21:17:18.102Z,11.80
2023-03-17T21:19:46.401Z,11.78
2023-03-17T21:22:14.122Z,11.78
2023-03-17T21:24:42.215Z,11.78
2023-03-17T21:27:12.043Z,11.75
2023-03-17T21:29:41.383Z,11.75
2023-03-17T21:32:09.473Z,11.74
2023-03-17T21:34:38.113Z,11.69
2023-03-17T21:37:06.511Z,11.66
2023-03-17T21:39:34.197Z,11.62
2023-03-17T21:42:02.176Z,11.55
2023-03-17T21:44:29.984Z,11.48
2023-03-17T21:47:02.569Z,11.42
2023-03-17T21:49:30.431Z,11.36
2023-03-17T21:51:58.373Z,11.28
2023-03-17T21:54:26.575Z,11.23
2023-03-17T21:56:54.209Z,11.19
2023-03-17T21:59:21.876Z,11.16
2023-03-17T22:01:52.148Z,11.16
2023-03-17T22:04:21.604Z,11.13
2023-03-17T22:06:49.554Z,11.10
2023-03-17T22:09:19.218Z,11.09
2023-03-17T22:11:47.055Z,11.08
2023-03-17T22:14:20.033Z,11.05
2023-03-17T22:16:48.706Z,11.00
2023-03-17T22:19:20.606Z,10.98
2023-03-17T22:21:51.924Z,10.97
2023-03-17T22:24:19.882Z,10.93
2023-03-17T22:26:47.769Z,10.87
2023-03-17T22:29:16.218Z,10.84
2023-03-17T22:31:44.170Z,10.81
2023-03-17T22:34:11.988Z,10.73
2023-03-17T22:36:39.742Z,10.71
2023-03-17T22:39:10.603Z,10.68
2023-03-17T22:41:38.789Z,10.71
2023-03-17T22:44:09.217Z,10.74
2023-03-17T22:46:37.156Z,10.70
2023-03-17T22:49:05.131Z,10.69
2023-03-17T22:51:32.752Z,10.70
2023-03-17T22:54:00.682Z,10.69
2023-03-17T22:56:30.237Z,10.68
2023-03-17T22:58:57.872Z,10.62
2023-03-17T23:01:25.968Z,10.54
2023-03-17T23:03:54.920Z,10.47
2023-03-17T23:06:23.137Z,10.40
2023-03-17T23:08:50.988Z,10.34
2023-03-17T23:11:22.213Z,10.30
2023-03-17T23:13:52.837Z,10.26
2023-03-17T23:16:22.171Z,10.21
2023-03-17T23:18:50.809Z,10.22
2023-03-17T23:21:23.604Z,10.21
2023-03-17T23:23:51.746Z,10.19
2023-03-17T23:26:19.541Z,10.17
2023-03-17T23:28:47.734Z,10.11
2023-03-17T23:31:19.376Z,10.11
2023-03-17T23:33:47.694Z,10.07
2023-03-17T23:36:16.290Z,10.04
2023-03-17T23:38:45.544Z,9.99
2023-03-17T23:41:14.589Z,9.96
2023-03-17T23:43:44.084Z,9.96
2023-03-17T23:46:13.043Z,9.97
2023-03-17T23:48:43.075Z,9.95
2023-03-17T23:51:12.345Z,9.89
2023-03-17T23:53:40.643Z,9.89
2023-03-17T23:56:09.375Z,9.86
2023-03-17T23:58:37.430Z,9.84
